Time;durP1;ratioP1;P1;durP2;ratioP2;P2;SDS_P1;SDS_P2;PMS_P1;PMS_P2;Temp;Humidity;BMP_temperature;BMP_pressure;BME280_temperature;BME280_humidity;BME280_pressure;Samples;Min_cycle;Max_cycle;Signal;HPM_P1;HPM_P2
2022/12/03 00:01:35;;;;;;;53.13;23.13;;;;;;;;;;763103;184;816089;-59
2022/12/03 00:04:01;;;;;;;54.97;25.63;;;;;;;;;;750368;184;917217;-60
2022/12/03 00:06:26;;;;;;;65.70;31.40;;;;;;;;;;742830;185;919325;-59
2022/12/03 00:08:52;;;;;;;81.97;31.80;;;;;;;;;;754989;184;816650;-59
2022/12/03 00:11:18;;;;;;;66.97;30.07;;;;;;;;;;760633;183;917041;-60
2022/12/03 00:13:44;;;;;;;78.80;30.90;;;;;;;;;;745543;187;920823;-60
2022/12/03 00:16:10;;;;;;;32.77;18.10;;;;;;;;;;743301;188;983742;-59
2022/12/03 00:18:36;;;;;;;59.03;30.97;;;;;;;;;;746756;188;918566;-60
2022/12/03 00:21:01;;;;;;;61.43;26.57;;;;;;;;;;760215;184;918849;-60
2022/12/03 00:23:27;;;;;;;68.20;30.70;;;;;;;;;;760807;184;919153;-60
2022/12/03 00:25:53;;;;;;;68.40;29.60;;;;;;;;;;770180;184;849338;-58
2022/12/03 00:28:19;;;;;;;57.37;27.20;;;;;;;;;;764509;182;919147;-58
2022/12/03 00:30:45;;;;;;;56.58;26.98;;;;;;;;;;743773;183;772955;-59
2022/12/03 00:33:11;;;;;;;67.17;32.53;;;;;;;;;;755831;185;917907;-58
2022/12/03 00:35:37;;;;;;;68.33;31.30;;;;;;;;;;744317;187;919456;-59
2022/12/03 00:38:02;;;;;;;60.40;26.57;;;;;;;;;;764844;181;918302;-58
2022/12/03 00:40:28;;;;;;;65.13;27.13;;;;;;;;;;756218;183;917098;-59
2022/12/03 00:42:54;;;;;;;71.87;31.85;;;;;;;;;;769639;183;914440;-58
2022/12/03 00:45:20;;;;;;;73.50;27.50;;;;;;;;;;757182;183;919228;-59
2022/12/03 00:47:46;;;;;;;63.63;26.77;;;;;;;;;;742227;185;918577;-59
2022/12/03 00:50:12;;;;;;;68.73;29.97;;;;;;;;;;767608;181;918143;-59
2022/12/03 00:52:37;;;;;;;59.67;29.20;;;;;;;;;;761159;181;918955;-60
2022/12/03 00:55:03;;;;;;;83.18;33.85;;;;;;;;;;773273;179;1023239;-59
2022/12/03 00:57:29;;;;;;;69.97;30.60;;;;;;;;;;774027;180;912265;-59
2022/12/03 00:59:55;;;;;;;79.20;33.90;;;;;;;;;;746934;187;918646;-59
2022/12/03 01:02:21;;;;;;;63.47;30.30;;;;;;;;;;760455;180;919039;-58
2022/12/03 01:04:47;;;;;;;81.80;35.67;;;;;;;;;;769555;180;1023565;-61
2022/12/03 01:07:13;;;;;;;70.33;29.93;;;;;;;;;;760924;184;1021972;-59
2022/12/03 01:09:39;;;;;;;71.80;32.20;;;;;;;;;;757405;180;924406;-60
2022/12/03 01:12:04;;;;;;;74.57;34.37;;;;;;;;;;757552;184;919357;-59
2022/12/03 01:14:30;;;;;;;73.03;33.47;;;;;;;;;;761434;184;919121;-58
2022/12/03 01:16:56;;;;;;;87.90;35.23;;;;;;;;;;758167;183;919154;-60
2022/12/03 01:19:23;;;;;;;74.33;34.10;;;;;;;;;;762628;184;912497;-59
2022/12/03 01:21:48;;;;;;;71.10;35.90;;;;;;;;;;763115;184;914965;-59
2022/12/03 01:24:14;;;;;;;78.43;34.80;;;;;;;;;;749511;184;918175;-58
2022/12/03 01:26:39;;;;;;;82.40;33.50;;;;;;;;;;763023;180;921775;-59
2022/12/03 01:29:05;;;;;;;76.22;30.42;;;;;;;;;;758887;180;919055;-59
2022/12/03 01:34:03;;;;;;;68.32;28.35;;;;;;;;;;751729;184;918749;-59
2022/12/03 01:36:29;;;;;;;84.23;35.47;;;;;;;;;;750921;184;920008;-58
2022/12/03 01:38:54;;;;;;;74.57;31.87;;;;;;;;;;759393;184;918225;-58
2022/12/03 01:41:20;;;;;;;70.28;31.42;;;;;;;;;;762428;183;919622;-58
2022/12/03 01:43:46;;;;;;;87.17;37.17;;;;;;;;;;750323;184;919103;-58
2022/12/03 01:46:13;;;;;;;66.33;30.53;;;;;;;;;;750368;184;918650;-59
2022/12/03 01:48:39;;;;;;;89.47;33.83;;;;;;;;;;752871;184;921316;-58
2022/12/03 01:51:05;;;;;;;83.77;36.63;;;;;;;;;;747677;184;921874;-59
2022/12/03 01:53:31;;;;;;;73.67;27.60;;;;;;;;;;748469;184;920952;-58
2022/12/03 01:55:56;;;;;;;103.63;39.27;;;;;;;;;;762511;184;919300;-58
2022/12/03 01:58:22;;;;;;;82.40;36.63;;;;;;;;;;747909;187;919508;-58
2022/12/03 02:00:48;;;;;;;71.37;29.00;;;;;;;;;;759738;182;919117;-60
2022/12/03 02:03:15;;;;;;;94.13;33.20;;;;;;;;;;761132;183;913867;-58
2022/12/03 02:05:41;;;;;;;64.15;26.67;;;;;;;;;;748493;187;919163;-58
2022/12/03 02:08:12;;;;;;;90.83;34.43;;;;;;;;;;769781;180;917936;-58
2022/12/03 02:10:38;;;;;;;85.97;32.77;;;;;;;;;;772647;180;917667;-59
2022/12/03 02:13:04;;;;;;;100.40;37.03;;;;;;;;;;764921;180;847832;-58
2022/12/03 02:15:30;;;;;;;60.10;27.33;;;;;;;;;;748012;187;855698;-58
2022/12/03 02:17:56;;;;;;;95.53;38.27;;;;;;;;;;753298;184;1020801;-59
2022/12/03 02:20:22;;;;;;;88.57;37.83;;;;;;;;;;759300;184;940406;-59
2022/12/03 02:22:47;;;;;;;100.33;37.33;;;;;;;;;;755479;184;940546;-58
2022/12/03 02:25:15;;;;;;;93.93;37.15;;;;;;;;;;737489;187;909567;-59
2022/12/03 02:27:41;;;;;;;93.97;35.70;;;;;;;;;;723232;191;919486;-59
2022/12/03 02:30:08;;;;;;;96.60;39.97;;;;;;;;;;750950;186;916597;-59
2022/12/03 02:32:33;;;;;;;98.00;34.77;;;;;;;;;;758783;183;919051;-59
2022/12/03 02:34:59;;;;;;;90.53;34.30;;;;;;;;;;763435;180;919776;-59
2022/12/03 02:37:25;;;;;;;95.20;34.10;;;;;;;;;;774421;180;919509;-59
2022/12/03 02:39:51;;;;;;;64.17;26.00;;;;;;;;;;757054;183;943350;-58
2022/12/03 02:44:48;;;;;;;123.30;40.97;;;;;;;;;;770843;179;920714;-60
2022/12/03 02:47:14;;;;;;;100.27;36.13;;;;;;;;;;772746;179;919981;-60
2022/12/03 02:49:40;;;;;;;72.23;30.90;;;;;;;;;;759872;179;918790;-60
2022/12/03 02:52:06;;;;;;;104.90;41.43;;;;;;;;;;759074;182;921537;-60
2022/12/03 02:54:32;;;;;;;97.53;34.70;;;;;;;;;;763402;182;818575;-59
2022/12/03 02:56:58;;;;;;;91.00;36.07;;;;;;;;;;761773;180;921619;-57
2022/12/03 02:59:23;;;;;;;97.20;36.10;;;;;;;;;;771907;180;1018757;-59
2022/12/03 03:01:49;;;;;;;86.33;28.90;;;;;;;;;;769447;183;923405;-59
2022/12/03 03:04:15;;;;;;;90.37;37.87;;;;;;;;;;765896;180;919335;-58
2022/12/03 03:06:41;;;;;;;93.07;36.87;;;;;;;;;;764092;180;920796;-57
2022/12/03 03:09:07;;;;;;;101.77;41.40;;;;;;;;;;763735;181;919065;-59
2022/12/03 03:11:33;;;;;;;87.60;34.97;;;;;;;;;;751696;185;915473;-60
2022/12/03 03:13:58;;;;;;;81.23;33.17;;;;;;;;;;763384;179;816828;-58
2022/12/03 03:16:24;;;;;;;86.70;34.60;;;;;;;;;;746436;184;918974;-59
2022/12/03 03:18:50;;;;;;;88.17;39.13;;;;;;;;;;760218;179;918473;-58
2022/12/03 03:21:16;;;;;;;82.50;32.87;;;;;;;;;;757870;181;918853;-58
2022/12/03 03:23:42;;;;;;;98.40;37.57;;;;;;;;;;748338;184;919516;-58
2022/12/03 03:26:08;;;;;;;105.13;40.30;;;;;;;;;;773764;180;918965;-59
2022/12/03 03:28:34;;;;;;;78.13;32.73;;;;;;;;;;760786;183;920443;-58
2022/12/03 03:30:59;;;;;;;101.37;37.37;;;;;;;;;;753927;184;1020702;-59
2022/12/03 03:33:25;;;;;;;86.93;35.10;;;;;;;;;;754366;185;919048;-59
2022/12/03 03:35:51;;;;;;;99.93;39.93;;;;;;;;;;750745;188;919401;-59
2022/12/03 03:38:17;;;;;;;93.40;35.37;;;;;;;;;;755298;184;918814;-59
2022/12/03 03:40:43;;;;;;;88.00;36.50;;;;;;;;;;739996;188;919322;-59
2022/12/03 03:43:09;;;;;;;80.43;35.30;;;;;;;;;;764778;183;930056;-58
2022/12/03 03:45:35;;;;;;;78.87;32.37;;;;;;;;;;775631;180;919230;-59
2022/12/03 03:48:00;;;;;;;87.80;37.07;;;;;;;;;;767616;179;1025589;-59
2022/12/03 03:50:26;;;;;;;107.27;39.83;;;;;;;;;;767350;180;920500;-58
2022/12/03 03:52:52;;;;;;;88.07;35.77;;;;;;;;;;764551;183;921224;-59
2022/12/03 03:55:19;;;;;;;96.85;36.90;;;;;;;;;;764448;183;918711;-59
2022/12/03 03:57:44;;;;;;;90.83;36.37;;;;;;;;;;769627;181;817909;-58
2022/12/03 04:00:11;;;;;;;83.73;36.90;;;;;;;;;;769576;179;920821;-58
2022/12/03 04:02:36;;;;;;;112.90;43.87;;;;;;;;;;766846;179;918882;-59
2022/12/03 04:05:02;;;;;;;100.97;40.47;;;;;;;;;;763419;182;915672;-60
2022/12/03 04:07:28;;;;;;;95.23;35.77;;;;;;;;;;783191;179;818456;-58
2022/12/03 04:09:54;;;;;;;111.63;39.57;;;;;;;;;;775481;179;922718;-58
2022/12/03 04:14:51;;;;;;;89.83;39.33;;;;;;;;;;778095;179;923760;-58
2022/12/03 04:17:17;;;;;;;105.97;39.90;;;;;;;;;;764078;180;920146;-58
2022/12/03 04:19:43;;;;;;;97.83;36.57;;;;;;;;;;774426;179;917577;-58
2022/12/03 04:24:40;;;;;;;84.80;32.17;;;;;;;;;;776361;179;819766;-59
2022/12/03 04:29:38;;;;;;;88.97;34.60;;;;;;;;;;750316;183;918361;-58
2022/12/03 04:37:07;;;;;;;90.40;31.77;;;;;;;;;;761022;184;918816;-58
2022/12/03 04:39:32;;;;;;;99.83;37.60;;;;;;;;;;743855;185;919993;-59
2022/12/03 04:41:58;;;;;;;93.80;35.40;;;;;;;;;;747587;185;919362;-60
2022/12/03 04:46:56;;;;;;;96.27;34.13;;;;;;;;;;756373;184;924657;-59
2022/12/03 04:49:22;;;;;;;96.97;37.93;;;;;;;;;;756986;184;818414;-59
2022/12/03 04:51:48;;;;;;;82.23;35.80;;;;;;;;;;763334;184;821758;-59
2022/12/03 04:54:14;;;;;;;95.90;42.17;;;;;;;;;;758172;184;1017856;-59
2022/12/03 04:56:39;;;;;;;95.20;39.00;;;;;;;;;;741802;190;919111;-60
2022/12/03 04:59:05;;;;;;;105.30;41.03;;;;;;;;;;748574;183;1023066;-60
2022/12/03 05:01:31;;;;;;;99.43;39.70;;;;;;;;;;762430;184;1021503;-58
2022/12/03 05:03:57;;;;;;;101.80;41.73;;;;;;;;;;752722;184;919584;-60
2022/12/03 05:06:23;;;;;;;99.33;37.30;;;;;;;;;;754733;184;898567;-59
2022/12/03 05:08:49;;;;;;;84.90;35.50;;;;;;;;;;758989;183;917637;-58
2022/12/03 05:11:15;;;;;;;114.95;39.80;;;;;;;;;;759625;183;919299;-59
2022/12/03 05:13:40;;;;;;;103.57;41.40;;;;;;;;;;741793;185;921620;-58
2022/12/03 05:16:06;;;;;;;112.53;40.72;;;;;;;;;;757386;184;918368;-58
2022/12/03 05:18:32;;;;;;;104.13;40.50;;;;;;;;;;764617;183;919743;-58
2022/12/03 05:20:58;;;;;;;90.60;35.87;;;;;;;;;;751418;184;1016823;-58
2022/12/03 05:23:24;;;;;;;111.53;40.37;;;;;;;;;;746415;184;919067;-59
2022/12/03 05:25:50;;;;;;;104.00;37.50;;;;;;;;;;760022;186;919217;-58
2022/12/03 05:28:16;;;;;;;109.07;41.43;;;;;;;;;;740993;183;918425;-59
2022/12/03 05:30:41;;;;;;;101.80;40.60;;;;;;;;;;744066;184;920743;-58
2022/12/03 05:33:07;;;;;;;108.40;43.43;;;;;;;;;;780190;179;816663;-58
2022/12/03 05:35:33;;;;;;;103.07;42.03;;;;;;;;;;768503;180;918702;-60
2022/12/03 05:37:59;;;;;;;104.87;40.20;;;;;;;;;;757946;183;918946;-59
2022/12/03 05:40:25;;;;;;;103.57;40.07;;;;;;;;;;752628;184;918882;-58
2022/12/03 05:42:53;;;;;;;104.82;39.88;;;;;;;;;;752160;185;919508;-60
2022/12/03 05:45:20;;;;;;;120.30;42.73;;;;;;;;;;755759;184;919137;-59
2022/12/03 05:47:46;;;;;;;97.63;37.63;;;;;;;;;;753774;184;816961;-58
2022/12/03 05:50:12;;;;;;;110.17;41.00;;;;;;;;;;756983;183;917102;-58
2022/12/03 05:52:38;;;;;;;113.40;41.23;;;;;;;;;;744861;183;816818;-60
2022/12/03 05:55:04;;;;;;;114.40;46.00;;;;;;;;;;770779;180;914249;-59
2022/12/03 05:57:30;;;;;;;103.13;39.90;;;;;;;;;;759868;183;917356;-59
2022/12/03 05:59:56;;;;;;;91.97;35.80;;;;;;;;;;763180;181;917395;-60
2022/12/03 06:02:21;;;;;;;99.50;35.40;;;;;;;;;;775210;180;920559;-59
2022/12/03 06:04:48;;;;;;;98.10;39.80;;;;;;;;;;765158;180;918608;-57
2022/12/03 06:07:13;;;;;;;109.93;41.37;;;;;;;;;;756673;184;919232;-59
2022/12/03 06:09:39;;;;;;;117.30;45.40;;;;;;;;;;754260;184;916895;-59
2022/12/03 06:12:05;;;;;;;102.77;45.03;;;;;;;;;;745238;188;918833;-60
2022/12/03 06:14:33;;;;;;;110.17;40.83;;;;;;;;;;727779;191;919196;-59
2022/12/03 06:16:57;;;;;;;105.37;46.67;;;;;;;;;;745730;187;919156;-57
2022/12/03 06:19:23;;;;;;;105.90;47.90;;;;;;;;;;761537;183;917055;-59
2022/12/03 06:21:48;;;;;;;126.07;60.57;;;;;;;;;;757657;184;914361;-58
2022/12/03 06:24:14;;;;;;;122.27;45.33;;;;;;;;;;753956;183;919107;-59
2022/12/03 06:26:40;;;;;;;129.97;41.63;;;;;;;;;;762677;183;909998;-57
2022/12/03 06:29:06;;;;;;;97.57;42.90;;;;;;;;;;766587;180;922168;-58
2022/12/03 06:31:32;;;;;;;101.43;38.13;;;;;;;;;;764676;180;917750;-59
2022/12/03 06:33:58;;;;;;;124.83;44.20;;;;;;;;;;768735;180;918084;-58
2022/12/03 06:36:26;;;;;;;119.63;45.00;;;;;;;;;;776749;179;919300;-58
2022/12/03 06:38:49;;;;;;;119.43;45.33;;;;;;;;;;763386;180;1632921;-59
2022/12/03 06:41:15;;;;;;;110.40;44.80;;;;;;;;;;758467;184;920092;-60
2022/12/03 06:43:41;;;;;;;107.67;44.20;;;;;;;;;;747194;185;919126;-59
2022/12/03 06:46:07;;;;;;;96.17;43.00;;;;;;;;;;751911;184;919299;-59
2022/12/03 06:48:33;;;;;;;103.47;39.77;;;;;;;;;;755610;183;916517;-58
2022/12/03 06:50:59;;;;;;;107.97;41.50;;;;;;;;;;749012;183;916404;-59
2022/12/03 06:53:24;;;;;;;112.90;42.53;;;;;;;;;;762437;184;816188;-59
2022/12/03 06:55:50;;;;;;;138.13;50.33;;;;;;;;;;743796;188;918419;-60
2022/12/03 06:58:16;;;;;;;109.97;38.67;;;;;;;;;;758999;184;920260;-58
2022/12/03 07:00:42;;;;;;;120.47;45.50;;;;;;;;;;767664;183;919669;-59
2022/12/03 07:03:08;;;;;;;112.93;45.50;;;;;;;;;;761136;183;920963;-59
2022/12/03 07:05:34;;;;;;;104.43;44.22;;;;;;;;;;767914;180;921203;-57
2022/12/03 07:08:00;;;;;;;97.83;41.13;;;;;;;;;;771010;180;921576;-57
2022/12/03 07:10:25;;;;;;;98.33;39.10;;;;;;;;;;760843;183;920572;-58
2022/12/03 07:12:51;;;;;;;112.23;44.87;;;;;;;;;;751809;183;921001;-58
2022/12/03 07:15:17;;;;;;;113.27;43.63;;;;;;;;;;760345;183;921123;-58
2022/12/03 07:17:43;;;;;;;121.80;46.30;;;;;;;;;;771060;179;817634;-59
2022/12/03 07:20:09;;;;;;;134.80;45.97;;;;;;;;;;761259;180;916495;-59
2022/12/03 07:22:35;;;;;;;110.10;43.17;;;;;;;;;;757675;182;915375;-58
2022/12/03 07:25:01;;;;;;;108.63;46.03;;;;;;;;;;774736;179;816352;-59
2022/12/03 07:27:27;;;;;;;117.80;49.30;;;;;;;;;;752262;183;816994;-58
2022/12/03 07:29:53;;;;;;;102.83;45.53;;;;;;;;;;760836;183;924735;-59
2022/12/03 07:32:18;;;;;;;105.70;41.93;;;;;;;;;;760993;180;909532;-59
2022/12/03 07:34:44;;;;;;;133.90;51.30;;;;;;;;;;773278;179;914199;-59
2022/12/03 07:37:10;;;;;;;107.93;46.73;;;;;;;;;;760524;181;916753;-58
2022/12/03 07:39:36;;;;;;;96.97;41.73;;;;;;;;;;760249;183;943415;-58
2022/12/03 07:42:02;;;;;;;113.53;44.00;;;;;;;;;;767160;183;918964;-59
2022/12/03 07:44:30;;;;;;;88.20;40.70;;;;;;;;;;761984;183;915705;-59
2022/12/03 07:46:54;;;;;;;94.20;40.87;;;;;;;;;;757908;183;919366;-58
2022/12/03 07:49:19;;;;;;;105.87;46.40;;;;;;;;;;774376;180;918011;-58
2022/12/03 07:51:52;;;;;;;125.90;51.25;;;;;;;;;;762335;183;919239;-58
2022/12/03 07:54:11;;;;;;;112.70;43.70;;;;;;;;;;760044;183;917377;-58
2022/12/03 07:56:37;;;;;;;99.30;40.70;;;;;;;;;;762453;183;919264;-58
2022/12/03 07:59:03;;;;;;;111.20;44.23;;;;;;;;;;763462;181;917511;-59
2022/12/03 08:01:29;;;;;;;115.13;45.37;;;;;;;;;;770436;180;620115;-59
2022/12/03 08:03:55;;;;;;;110.50;45.80;;;;;;;;;;766975;180;918682;-60
2022/12/03 08:06:20;;;;;;;147.10;55.97;;;;;;;;;;761873;183;921048;-61
2022/12/03 08:08:46;;;;;;;145.30;58.90;;;;;;;;;;753229;183;919989;-59
2022/12/03 08:11:13;;;;;;;119.63;46.27;;;;;;;;;;751549;183;918430;-59
2022/12/03 08:13:38;;;;;;;110.33;40.87;;;;;;;;;;735040;187;816299;-58
2022/12/03 08:16:04;;;;;;;118.97;47.07;;;;;;;;;;768991;180;918733;-59
2022/12/03 08:18:30;;;;;;;154.90;64.83;;;;;;;;;;772283;180;817078;-60
2022/12/03 08:20:55;;;;;;;493.75;201.07;;;;;;;;;;765222;180;916437;-59
2022/12/03 08:23:21;;;;;;;147.63;58.50;;;;;;;;;;763673;179;870354;-58
2022/12/03 08:25:47;;;;;;;130.52;54.78;;;;;;;;;;757717;183;916805;-58
2022/12/03 08:28:13;;;;;;;145.00;59.37;;;;;;;;;;764136;180;919308;-59
2022/12/03 08:30:39;;;;;;;132.20;52.40;;;;;;;;;;772383;183;821573;-58
2022/12/03 08:33:11;;;;;;;112.90;50.40;;;;;;;;;;766380;179;916558;-59
2022/12/03 08:35:37;;;;;;;110.03;43.77;;;;;;;;;;759160;183;923670;-59
2022/12/03 08:38:05;;;;;;;115.70;45.03;;;;;;;;;;759626;183;919300;-60
2022/12/03 08:40:32;;;;;;;113.87;51.20;;;;;;;;;;751776;183;920747;-59
2022/12/03 08:42:57;;;;;;;131.60;53.03;;;;;;;;;;753323;184;918788;-59
2022/12/03 08:45:23;;;;;;;112.53;47.53;;;;;;;;;;746500;187;613703;-60
2022/12/03 08:47:49;;;;;;;128.02;51.45;;;;;;;;;;739713;186;918583;-58
2022/12/03 08:50:21;;;;;;;157.87;61.83;;;;;;;;;;764739;182;816306;-59
2022/12/03 08:52:46;;;;;;;151.17;64.07;;;;;;;;;;745228;186;920645;-60
2022/12/03 08:55:19;;;;;;;177.40;68.63;;;;;;;;;;756785;184;915976;-58
2022/12/03 08:57:44;;;;;;;313.13;130.70;;;;;;;;;;775082;179;922114;-61
2022/12/03 09:00:16;;;;;;;279.13;113.22;;;;;;;;;;762918;181;918939;-61
2022/12/03 09:02:43;;;;;;;184.03;75.40;;;;;;;;;;751957;183;922071;-59
2022/12/03 09:05:13;;;;;;;299.02;136.98;;;;;;;;;;757261;183;918899;-61
2022/12/03 09:07:38;;;;;;;169.50;70.30;;;;;;;;;;763198;183;819027;-60
2022/12/03 09:10:05;;;;;;;147.90;71.77;;;;;;;;;;756893;184;918990;-59
2022/12/03 09:12:30;;;;;;;137.23;53.47;;;;;;;;;;762149;180;906266;-59
2022/12/03 09:14:56;;;;;;;126.03;55.77;;;;;;;;;;768923;180;915348;-61
2022/12/03 09:17:22;;;;;;;122.80;53.87;;;;;;;;;;772245;180;815385;-60
2022/12/03 09:19:48;;;;;;;115.68;48.15;;;;;;;;;;770012;180;927745;-60
2022/12/03 09:22:16;;;;;;;119.67;45.53;;;;;;;;;;772046;180;919369;-60
2022/12/03 09:24:40;;;;;;;100.90;45.27;;;;;;;;;;758624;183;919516;-60
2022/12/03 09:27:05;;;;;;;108.30;47.33;;;;;;;;;;756674;183;917985;-61
2022/12/03 09:29:31;;;;;;;121.27;40.40;;;;;;;;;;758206;180;919950;-61
2022/12/03 09:31:57;;;;;;;116.30;50.53;;;;;;;;;;778492;180;915207;-61
2022/12/03 09:34:23;;;;;;;110.83;43.97;;;;;;;;;;770456;180;916884;-60
2022/12/03 09:36:49;;;;;;;125.90;49.70;;;;;;;;;;742980;186;915781;-60
2022/12/03 09:39:15;;;;;;;105.97;47.53;;;;;;;;;;757561;183;896616;-61
2022/12/03 09:41:41;;;;;;;155.87;61.47;;;;;;;;;;751306;184;918341;-62
2022/12/03 09:44:06;;;;;;;155.83;69.70;;;;;;;;;;757163;180;921509;-61
2022/12/03 09:46:32;;;;;;;175.97;79.93;;;;;;;;;;749841;183;918553;-62
2022/12/03 09:48:58;;;;;;;211.90;88.47;;;;;;;;;;766933;179;919520;-62
2022/12/03 09:51:24;;;;;;;133.43;52.40;;;;;;;;;;755379;183;899091;-63
2022/12/03 09:53:50;;;;;;;126.40;45.03;;;;;;;;;;748560;184;918616;-64
2022/12/03 09:56:16;;;;;;;95.50;41.30;;;;;;;;;;751367;183;918200;-63
2022/12/03 09:58:42;;;;;;;129.93;54.03;;;;;;;;;;752476;184;816542;-63
2022/12/03 10:01:07;;;;;;;147.37;59.77;;;;;;;;;;748763;184;922010;-64
2022/12/03 10:03:33;;;;;;;94.87;39.57;;;;;;;;;;756737;184;920625;-62
2022/12/03 10:05:59;;;;;;;146.13;63.60;;;;;;;;;;751947;185;918913;-61
2022/12/03 10:08:25;;;;;;;123.47;48.07;;;;;;;;;;750177;183;918935;-60
2022/12/03 10:10:51;;;;;;;135.20;57.57;;;;;;;;;;761266;183;817194;-60
2022/12/03 10:13:18;;;;;;;125.53;55.00;;;;;;;;;;755625;184;918644;-60
2022/12/03 10:15:44;;;;;;;105.77;44.17;;;;;;;;;;760176;184;919483;-61
2022/12/03 10:18:11;;;;;;;104.77;42.77;;;;;;;;;;745684;188;818590;-62
2022/12/03 10:20:37;;;;;;;93.37;42.17;;;;;;;;;;757088;183;817163;-62
2022/12/03 10:23:03;;;;;;;91.40;42.40;;;;;;;;;;751106;184;948017;-63
2022/12/03 10:25:29;;;;;;;102.40;41.77;;;;;;;;;;757235;183;852471;-60
2022/12/03 10:27:54;;;;;;;101.67;45.47;;;;;;;;;;763886;183;812387;-63
2022/12/03 10:30:22;;;;;;;116.93;46.40;;;;;;;;;;754207;184;918283;-60
2022/12/03 10:32:46;;;;;;;107.27;48.30;;;;;;;;;;762790;180;914793;-61
2022/12/03 10:35:13;;;;;;;121.23;48.70;;;;;;;;;;775256;180;908925;-60
2022/12/03 10:37:54;;;;;;;117.03;49.87;;;;;;;;;;761110;180;880744;-60
2022/12/03 10:40:20;;;;;;;125.50;41.00;;;;;;;;;;765487;180;921741;-64
2022/12/03 10:42:45;;;;;;;104.87;47.27;;;;;;;;;;771256;180;919407;-64
2022/12/03 10:45:13;;;;;;;123.00;50.47;;;;;;;;;;773258;180;618679;-64
2022/12/03 10:47:38;;;;;;;109.03;52.00;;;;;;;;;;772664;180;816536;-62
2022/12/03 10:50:04;;;;;;;141.63;55.73;;;;;;;;;;762623;179;812294;-63
2022/12/03 10:52:30;;;;;;;108.70;44.00;;;;;;;;;;771449;179;912764;-66
2022/12/03 10:54:56;;;;;;;98.20;41.60;;;;;;;;;;763772;181;906117;-65
2022/12/03 10:57:22;;;;;;;105.83;47.73;;;;;;;;;;766352;179;895309;-63
2022/12/03 10:59:48;;;;;;;113.33;48.77;;;;;;;;;;758060;183;911251;-66
2022/12/03 11:02:17;;;;;;;110.17;47.40;;;;;;;;;;766439;183;820932;-66
2022/12/03 11:04:44;;;;;;;130.43;49.43;;;;;;;;;;742260;187;1837456;-67
2022/12/03 11:07:14;;;;;;;104.87;45.87;;;;;;;;;;760269;183;919104;-67
2022/12/03 11:09:40;;;;;;;101.17;46.67;;;;;;;;;;742766;187;918891;-67
2022/12/03 11:12:06;;;;;;;138.40;52.77;;;;;;;;;;761452;183;816550;-64
2022/12/03 11:14:38;;;;;;;102.47;46.07;;;;;;;;;;770519;178;845085;-64
2022/12/03 11:17:04;;;;;;;105.37;47.70;;;;;;;;;;754976;180;914194;-63
2022/12/03 11:19:44;;;;;;;107.63;44.43;;;;;;;;;;770441;180;916680;-68
2022/12/03 11:22:19;;;;;;;98.30;46.53;;;;;;;;;;765789;181;918812;-63
2022/12/03 11:24:45;;;;;;;111.03;50.00;;;;;;;;;;764511;184;917991;-67
2022/12/03 11:27:14;;;;;;;118.20;49.40;;;;;;;;;;759139;183;919342;-66
2022/12/03 11:29:45;;;;;;;85.83;34.30;;;;;;;;;;758753;183;831121;-61
2022/12/03 11:32:10;;;;;;;99.90;42.97;;;;;;;;;;758963;183;919761;-62
2022/12/03 11:34:39;;;;;;;109.20;42.23;;;;;;;;;;761114;183;920754;-62
2022/12/03 11:37:24;;;;;;;93.53;40.87;;;;;;;;;;761285;183;922417;-62
2022/12/03 11:40:05;;;;;;;112.82;44.08;;;;;;;;;;749686;184;919641;-66
2022/12/03 11:42:37;;;;;;;125.63;49.03;;;;;;;;;;751713;183;921424;-66
2022/12/03 11:45:13;;;;;;;109.30;47.60;;;;;;;;;;751794;183;921381;-66
2022/12/03 11:47:41;;;;;;;136.43;55.00;;;;;;;;;;749172;183;918025;-63
2022/12/03 11:50:13;;;;;;;125.77;48.13;;;;;;;;;;760091;183;919227;-66
2022/12/03 11:52:39;;;;;;;149.07;58.30;;;;;;;;;;766826;180;878772;-63
2022/12/03 11:55:05;;;;;;;118.47;54.97;;;;;;;;;;762933;181;818639;-66
2022/12/03 11:57:33;;;;;;;113.47;48.73;;;;;;;;;;759490;183;928572;-65
2022/12/03 11:59:58;;;;;;;122.00;53.77;;;;;;;;;;765547;182;918672;-64
2022/12/03 12:02:24;;;;;;;128.80;59.03;;;;;;;;;;762792;181;919144;-65
2022/12/03 12:04:50;;;;;;;82.93;37.97;;;;;;;;;;766503;180;918944;-62
2022/12/03 12:07:35;;;;;;;138.40;59.90;;;;;;;;;;756729;184;816141;-63
2022/12/03 12:10:01;;;;;;;82.45;41.30;;;;;;;;;;760430;183;891394;-63
2022/12/03 12:12:30;;;;;;;97.80;45.03;;;;;;;;;;772744;181;818106;-62
2022/12/03 12:14:56;;;;;;;111.13;54.97;;;;;;;;;;767892;180;920370;-62
2022/12/03 12:17:27;;;;;;;148.33;50.20;;;;;;;;;;767546;180;920306;-62
2022/12/03 12:19:53;;;;;;;120.90;52.50;;;;;;;;;;755208;184;918853;-63
2022/12/03 12:22:33;;;;;;;117.93;54.17;;;;;;;;;;763006;183;918764;-63
2022/12/03 12:24:59;;;;;;;141.50;64.70;;;;;;;;;;779708;180;625004;-63
2022/12/03 12:27:31;;;;;;;168.70;74.93;;;;;;;;;;770388;180;943863;-62
2022/12/03 12:29:57;;;;;;;162.97;68.70;;;;;;;;;;763161;183;820075;-62
2022/12/03 12:32:25;;;;;;;139.90;65.22;;;;;;;;;;764693;180;917611;-62
2022/12/03 12:34:52;;;;;;;124.60;52.20;;;;;;;;;;772308;180;837555;-63
2022/12/03 12:37:35;;;;;;;113.03;50.25;;;;;;;;;;770250;179;920177;-61
2022/12/03 12:40:01;;;;;;;127.07;64.47;;;;;;;;;;764826;180;628872;-63
2022/12/03 12:42:28;;;;;;;167.83;69.27;;;;;;;;;;768829;180;921281;-62
2022/12/03 12:44:53;;;;;;;258.73;94.80;;;;;;;;;;779711;179;919576;-61
2022/12/03 12:47:19;;;;;;;189.98;74.15;;;;;;;;;;758520;183;1037812;-62
2022/12/03 12:49:45;;;;;;;129.27;52.97;;;;;;;;;;759840;183;717678;-62
2022/12/03 12:52:11;;;;;;;138.13;52.60;;;;;;;;;;762388;183;816245;-61
2022/12/03 12:54:37;;;;;;;133.13;53.23;;;;;;;;;;753590;184;917915;-61
2022/12/03 12:57:03;;;;;;;126.60;50.53;;;;;;;;;;758006;183;918836;-61
2022/12/03 12:59:28;;;;;;;208.95;73.45;;;;;;;;;;764020;183;924470;-61
2022/12/03 13:01:55;;;;;;;178.10;76.70;;;;;;;;;;758586;183;931033;-61
2022/12/03 13:04:20;;;;;;;249.40;89.00;;;;;;;;;;759960;183;892252;-61
2022/12/03 13:06:46;;;;;;;172.93;69.80;;;;;;;;;;764022;180;877237;-62
2022/12/03 13:09:20;;;;;;;167.00;78.50;;;;;;;;;;764295;180;919167;-62
2022/12/03 13:11:46;;;;;;;142.07;64.10;;;;;;;;;;752078;183;828356;-62
2022/12/03 13:14:12;;;;;;;160.53;73.33;;;;;;;;;;759234;183;817963;-60
2022/12/03 13:16:39;;;;;;;107.63;45.60;;;;;;;;;;772702;179;919149;-61
2022/12/03 13:19:04;;;;;;;92.73;43.17;;;;;;;;;;757812;183;821921;-61
2022/12/03 13:21:32;;;;;;;134.23;51.10;;;;;;;;;;756949;183;919223;-61
2022/12/03 13:23:57;;;;;;;126.38;50.35;;;;;;;;;;758072;183;897859;-62
2022/12/03 13:26:25;;;;;;;133.17;52.80;;;;;;;;;;766461;183;901725;-62
2022/12/03 13:28:51;;;;;;;134.80;53.42;;;;;;;;;;750508;183;918265;-61
2022/12/03 13:31:20;;;;;;;115.57;50.97;;;;;;;;;;758060;183;917773;-62
2022/12/03 13:33:45;;;;;;;134.93;62.17;;;;;;;;;;756079;183;918956;-61
2022/12/03 13:36:13;;;;;;;123.23;56.10;;;;;;;;;;761823;182;868765;-60
2022/12/03 13:38:37;;;;;;;130.83;54.90;;;;;;;;;;760612;183;709526;-60
2022/12/03 13:41:03;;;;;;;128.73;53.50;;;;;;;;;;760471;183;920363;-60
2022/12/03 13:43:29;;;;;;;122.82;48.20;;;;;;;;;;768634;180;918004;-62
2022/12/03 13:45:55;;;;;;;133.50;56.70;;;;;;;;;;771328;179;920506;-62
2022/12/03 13:48:21;;;;;;;118.87;49.60;;;;;;;;;;769761;179;922976;-60
2022/12/03 13:50:47;;;;;;;110.18;49.75;;;;;;;;;;766957;180;914439;-61
2022/12/03 13:53:14;;;;;;;120.63;55.00;;;;;;;;;;756964;181;814033;-59
2022/12/03 13:55:40;;;;;;;100.70;44.27;;;;;;;;;;754014;183;916485;-59
2022/12/03 13:58:05;;;;;;;103.07;48.67;;;;;;;;;;762142;183;917667;-62
2022/12/03 14:00:31;;;;;;;134.67;51.67;;;;;;;;;;760746;184;918149;-59
2022/12/03 14:02:57;;;;;;;113.40;50.20;;;;;;;;;;755013;183;917797;-60
2022/12/03 14:05:23;;;;;;;133.27;62.90;;;;;;;;;;759937;182;915705;-61
2022/12/03 14:07:49;;;;;;;122.53;51.53;;;;;;;;;;773492;180;817314;-59
2022/12/03 14:10:15;;;;;;;115.10;53.10;;;;;;;;;;769772;180;804401;-60
2022/12/03 14:12:41;;;;;;;123.03;56.67;;;;;;;;;;746907;186;919041;-62